sensor_id;sensor_type;location;lat;lon;timestamp;P1;durP1;ratioP1;P2;durP2;ratioP2
3185;SDS011;1604;53.700;10.252;2024-01-16T00:01:20;5.90;;;3.10;;
3185;SDS011;1604;53.700;10.252;2024-01-16T00:04:22;5.40;;;3.10;;
3185;SDS011;1604;53.700;10.252;2024-01-16T00:07:26;3.90;;;3.33;;
3185;SDS011;1604;53.700;10.252;2024-01-16T00:10:28;9.50;;;3.90;;
3185;SDS011;1604;53.700;10.252;2024-01-16T00:13:32;3.97;;;3.40;;
3185;SDS011;1604;53.700;10.252;2024-01-16T00:16:41;4.20;;;3.90;;
3185;SDS011;1604;53.700;10.252;2024-01-16T00:19:43;11.00;;;3.67;;
3185;SDS011;1604;53.700;10.252;2024-01-16T00:22:45;8.80;;;4.00;;
3185;SDS011;1604;53.700;10.252;2024-01-16T00:25:47;10.00;;;3.97;;
3185;SDS011;1604;53.700;10.252;2024-01-16T00:28:50;6.60;;;4.00;;
3185;SDS011;1604;53.700;10.252;2024-01-16T00:31:52;4.87;;;3.50;;
3185;SDS011;1604;53.700;10.252;2024-01-16T00:34:54;7.30;;;4.10;;
3185;SDS011;1604;53.700;10.252;2024-01-16T00:37:56;4.03;;;3.60;;
3185;SDS011;1604;53.700;10.252;2024-01-16T00:40:58;4.67;;;4.00;;
3185;SDS011;1604;53.700;10.252;2024-01-16T00:44:01;4.30;;;3.60;;
3185;SDS011;1604;53.700;10.252;2024-01-16T00:47:03;5.33;;;4.20;;
3185;SDS011;1604;53.700;10.252;2024-01-16T00:50:05;7.70;;;4.30;;
3185;SDS011;1604;53.700;10.252;2024-01-16T00:53:09;5.37;;;4.10;;
3185;SDS011;1604;53.700;10.252;2024-01-16T00:56:11;5.03;;;4.27;;
3185;SDS011;1604;53.700;10.252;2024-01-16T00:59:15;5.80;;;4.13;;
3185;SDS011;1604;53.700;10.252;2024-01-16T01:02:17;5.47;;;3.57;;
3185;SDS011;1604;53.700;10.252;2024-01-16T01:05:19;5.40;;;4.23;;
3185;SDS011;1604;53.700;10.252;2024-01-16T01:08:20;8.40;;;5.03;;
3185;SDS011;1604;53.700;10.252;2024-01-16T01:11:22;6.57;;;4.57;;
3185;SDS011;1604;53.700;10.252;2024-01-16T01:14:26;9.73;;;4.90;;
3185;SDS011;1604;53.700;10.252;2024-01-16T01:17:29;8.97;;;5.40;;
3185;SDS011;1604;53.700;10.252;2024-01-16T01:20:31;9.60;;;5.57;;
3185;SDS011;1604;53.700;10.252;2024-01-16T01:23:33;7.73;;;5.97;;
3185;SDS011;1604;53.700;10.252;2024-01-16T01:26:35;5.80;;;5.10;;
3185;SDS011;1604;53.700;10.252;2024-01-16T01:29:38;11.73;;;5.37;;
3185;SDS011;1604;53.700;10.252;2024-01-16T01:32:41;6.90;;;4.93;;
3185;SDS011;1604;53.700;10.252;2024-01-16T01:35:44;10.97;;;6.00;;
3185;SDS011;1604;53.700;10.252;2024-01-16T01:38:46;7.90;;;5.17;;
3185;SDS011;1604;53.700;10.252;2024-01-16T01:41:47;8.83;;;5.17;;
3185;SDS011;1604;53.700;10.252;2024-01-16T01:44:51;5.90;;;4.60;;
3185;SDS011;1604;53.700;10.252;2024-01-16T01:47:53;8.90;;;4.83;;
3185;SDS011;1604;53.700;10.252;2024-01-16T01:50:55;9.43;;;5.50;;
3185;SDS011;1604;53.700;10.252;2024-01-16T01:53:56;10.43;;;6.00;;
3185;SDS011;1604;53.700;10.252;2024-01-16T01:57:00;9.10;;;6.90;;
3185;SDS011;1604;53.700;10.252;2024-01-16T02:00:04;11.40;;;6.43;;
3185;SDS011;1604;53.700;10.252;2024-01-16T02:03:08;5.80;;;5.17;;
3185;SDS011;1604;53.700;10.252;2024-01-16T02:06:10;11.90;;;4.73;;
3185;SDS011;1604;53.700;10.252;2024-01-16T02:09:12;7.47;;;5.17;;
3185;SDS011;1604;53.700;10.252;2024-01-16T02:12:14;6.53;;;4.40;;
3185;SDS011;1604;53.700;10.252;2024-01-16T02:15:18;7.80;;;5.23;;
3185;SDS011;1604;53.700;10.252;2024-01-16T02:18:19;7.77;;;4.53;;
3185;SDS011;1604;53.700;10.252;2024-01-16T02:21:22;4.93;;;3.83;;
3185;SDS011;1604;53.700;10.252;2024-01-16T02:24:27;8.20;;;4.07;;
3185;SDS011;1604;53.700;10.252;2024-01-16T02:27:29;7.53;;;4.00;;
3185;SDS011;1604;53.700;10.252;2024-01-16T02:30:31;4.70;;;3.93;;
3185;SDS011;1604;53.700;10.252;2024-01-16T02:33:33;6.10;;;4.63;;
3185;SDS011;1604;53.700;10.252;2024-01-16T02:36:35;13.23;;;4.87;;
3185;SDS011;1604;53.700;10.252;2024-01-16T02:39:39;8.17;;;4.57;;
3185;SDS011;1604;53.700;10.252;2024-01-16T02:42:41;7.23;;;4.80;;
3185;SDS011;1604;53.700;10.252;2024-01-16T02:45:44;7.17;;;4.80;;
3185;SDS011;1604;53.700;10.252;2024-01-16T02:48:46;7.90;;;4.20;;
3185;SDS011;1604;53.700;10.252;2024-01-16T02:51:48;7.93;;;4.50;;
3185;SDS011;1604;53.700;10.252;2024-01-16T02:54:52;5.90;;;3.60;;
3185;SDS011;1604;53.700;10.252;2024-01-16T02:57:54;13.73;;;4.00;;
3185;SDS011;1604;53.700;10.252;2024-01-16T03:00:56;4.57;;;3.80;;
3185;SDS011;1604;53.700;10.252;2024-01-16T03:03:58;6.27;;;4.17;;
3185;SDS011;1604;53.700;10.252;2024-01-16T03:07:00;8.70;;;4.80;;
3185;SDS011;1604;53.700;10.252;2024-01-16T03:10:04;9.03;;;4.43;;
3185;SDS011;1604;53.700;10.252;2024-01-16T03:13:06;7.27;;;3.47;;
3185;SDS011;1604;53.700;10.252;2024-01-16T03:16:09;5.70;;;4.43;;
3185;SDS011;1604;53.700;10.252;2024-01-16T03:19:11;5.63;;;4.97;;
3185;SDS011;1604;53.700;10.252;2024-01-16T03:22:13;6.13;;;4.67;;
3185;SDS011;1604;53.700;10.252;2024-01-16T03:25:17;7.37;;;4.77;;
3185;SDS011;1604;53.700;10.252;2024-01-16T03:28:19;9.23;;;5.50;;
3185;SDS011;1604;53.700;10.252;2024-01-16T03:31:21;13.77;;;5.10;;
3185;SDS011;1604;53.700;10.252;2024-01-16T03:34:23;5.60;;;4.23;;
3185;SDS011;1604;53.700;10.252;2024-01-16T03:37:25;11.03;;;5.77;;
3185;SDS011;1604;53.700;10.252;2024-01-16T03:40:28;7.57;;;4.80;;
3185;SDS011;1604;53.700;10.252;2024-01-16T03:43:34;16.77;;;5.10;;
3185;SDS011;1604;53.700;10.252;2024-01-16T03:46:36;7.80;;;4.70;;
3185;SDS011;1604;53.700;10.252;2024-01-16T03:49:38;7.57;;;4.83;;
3185;SDS011;1604;53.700;10.252;2024-01-16T03:52:40;7.40;;;5.70;;
3185;SDS011;1604;53.700;10.252;2024-01-16T03:55:43;9.20;;;5.33;;
3185;SDS011;1604;53.700;10.252;2024-01-16T03:58:45;7.97;;;4.67;;
3185;SDS011;1604;53.700;10.252;2024-01-16T04:01:47;13.40;;;5.10;;
3185;SDS011;1604;53.700;10.252;2024-01-16T04:04:49;7.47;;;4.90;;
3185;SDS011;1604;53.700;10.252;2024-01-16T04:07:51;12.37;;;6.10;;
3185;SDS011;1604;53.700;10.252;2024-01-16T04:10:55;12.73;;;6.73;;
3185;SDS011;1604;53.700;10.252;2024-01-16T04:13:56;11.50;;;6.80;;
3185;SDS011;1604;53.700;10.252;2024-01-16T04:16:58;13.07;;;7.27;;
3185;SDS011;1604;53.700;10.252;2024-01-16T04:20:00;11.83;;;7.27;;
3185;SDS011;1604;53.700;10.252;2024-01-16T04:23:03;13.43;;;8.80;;
3185;SDS011;1604;53.700;10.252;2024-01-16T04:26:06;23.13;;;8.80;;
3185;SDS011;1604;53.700;10.252;2024-01-16T04:29:08;13.63;;;7.70;;
3185;SDS011;1604;53.700;10.252;2024-01-16T04:32:12;12.70;;;8.30;;
3185;SDS011;1604;53.700;10.252;2024-01-16T04:35:14;13.80;;;8.50;;
3185;SDS011;1604;53.700;10.252;2024-01-16T04:38:16;14.97;;;7.50;;
3185;SDS011;1604;53.700;10.252;2024-01-16T04:41:19;12.33;;;7.37;;
3185;SDS011;1604;53.700;10.252;2024-01-16T04:44:21;12.40;;;7.23;;
3185;SDS011;1604;53.700;10.252;2024-01-16T04:47:23;15.50;;;8.50;;
3185;SDS011;1604;53.700;10.252;2024-01-16T04:50:25;15.00;;;9.00;;
3185;SDS011;1604;53.700;10.252;2024-01-16T04:53:31;14.97;;;7.40;;
3185;SDS011;1604;53.700;10.252;2024-01-16T04:56:35;20.73;;;10.00;;
3185;SDS011;1604;53.700;10.252;2024-01-16T04:59:37;15.67;;;8.83;;
3185;SDS011;1604;53.700;10.252;2024-01-16T05:02:38;15.50;;;8.93;;
3185;SDS011;1604;53.700;10.252;2024-01-16T05:05:40;18.57;;;8.97;;
3185;SDS011;1604;53.700;10.252;2024-01-16T05:08:43;15.20;;;8.83;;
3185;SDS011;1604;53.700;10.252;2024-01-16T05:11:46;13.77;;;8.57;;
3185;SDS011;1604;53.700;10.252;2024-01-16T05:14:48;15.70;;;8.90;;
3185;SDS011;1604;53.700;10.252;2024-01-16T05:17:50;16.17;;;9.20;;
3185;SDS011;1604;53.700;10.252;2024-01-16T05:20:53;19.03;;;9.20;;
3185;SDS011;1604;53.700;10.252;2024-01-16T05:23:56;21.50;;;11.93;;
3185;SDS011;1604;53.700;10.252;2024-01-16T05:26:59;19.07;;;9.70;;
3185;SDS011;1604;53.700;10.252;2024-01-16T05:30:01;16.50;;;9.10;;
3185;SDS011;1604;53.700;10.252;2024-01-16T05:33:03;15.17;;;9.57;;
3185;SDS011;1604;53.700;10.252;2024-01-16T05:36:05;13.63;;;8.43;;
3185;SDS011;1604;53.700;10.252;2024-01-16T05:39:08;14.67;;;8.87;;
3185;SDS011;1604;53.700;10.252;2024-01-16T05:42:12;15.90;;;9.50;;
3185;SDS011;1604;53.700;10.252;2024-01-16T05:45:14;18.33;;;9.27;;
3185;SDS011;1604;53.700;10.252;2024-01-16T05:48:16;17.67;;;9.47;;
3185;SDS011;1604;53.700;10.252;2024-01-16T05:51:19;15.17;;;8.63;;
3185;SDS011;1604;53.700;10.252;2024-01-16T05:54:21;19.67;;;8.90;;
3185;SDS011;1604;53.700;10.252;2024-01-16T05:57:24;18.33;;;9.53;;
3185;SDS011;1604;53.700;10.252;2024-01-16T06:00:26;16.30;;;8.30;;
3185;SDS011;1604;53.700;10.252;2024-01-16T06:03:28;13.33;;;7.90;;
3185;SDS011;1604;53.700;10.252;2024-01-16T06:06:30;15.80;;;8.87;;
3185;SDS011;1604;53.700;10.252;2024-01-16T06:09:33;15.67;;;8.50;;
3185;SDS011;1604;53.700;10.252;2024-01-16T06:12:41;15.53;;;7.73;;
3185;SDS011;1604;53.700;10.252;2024-01-16T06:15:43;17.17;;;8.03;;
3185;SDS011;1604;53.700;10.252;2024-01-16T06:18:45;12.90;;;7.03;;
3185;SDS011;1604;53.700;10.252;2024-01-16T06:21:47;11.83;;;8.37;;
3185;SDS011;1604;53.700;10.252;2024-01-16T06:24:49;13.63;;;6.17;;
3185;SDS011;1604;53.700;10.252;2024-01-16T06:27:52;7.93;;;5.60;;
3185;SDS011;1604;53.700;10.252;2024-01-16T06:30:54;11.17;;;6.57;;
3185;SDS011;1604;53.700;10.252;2024-01-16T06:33:56;11.60;;;6.27;;
3185;SDS011;1604;53.700;10.252;2024-01-16T06:36:58;9.03;;;5.50;;
3185;SDS011;1604;53.700;10.252;2024-01-16T06:40:00;6.63;;;5.20;;
3185;SDS011;1604;53.700;10.252;2024-01-16T06:43:04;8.60;;;5.30;;
3185;SDS011;1604;53.700;10.252;2024-01-16T06:46:06;8.63;;;4.40;;
3185;SDS011;1604;53.700;10.252;2024-01-16T06:49:08;9.43;;;4.73;;
3185;SDS011;1604;53.700;10.252;2024-01-16T06:52:10;9.97;;;4.90;;
3185;SDS011;1604;53.700;10.252;2024-01-16T06:55:12;9.03;;;4.87;;
3185;SDS011;1604;53.700;10.252;2024-01-16T06:58:15;5.63;;;3.53;;
3185;SDS011;1604;53.700;10.252;2024-01-16T07:01:18;5.17;;;4.30;;
3185;SDS011;1604;53.700;10.252;2024-01-16T07:04:20;4.20;;;3.10;;
3185;SDS011;1604;53.700;10.252;2024-01-16T07:07:22;5.43;;;3.40;;
3185;SDS011;1604;53.700;10.252;2024-01-16T07:10:24;3.77;;;2.80;;
3185;SDS011;1604;53.700;10.252;2024-01-16T07:13:28;6.27;;;4.57;;
3185;SDS011;1604;53.700;10.252;2024-01-16T07:16:29;11.47;;;3.63;;
3185;SDS011;1604;53.700;10.252;2024-01-16T07:19:31;6.17;;;3.77;;
3185;SDS011;1604;53.700;10.252;2024-01-16T07:22:33;12.83;;;5.17;;
3185;SDS011;1604;53.700;10.252;2024-01-16T07:25:35;8.17;;;4.40;;
3185;SDS011;1604;53.700;10.252;2024-01-16T07:28:39;3.90;;;3.50;;
3185;SDS011;1604;53.700;10.252;2024-01-16T07:31:41;5.07;;;3.30;;
3185;SDS011;1604;53.700;10.252;2024-01-16T07:34:43;7.27;;;3.90;;
3185;SDS011;1604;53.700;10.252;2024-01-16T07:37:44;3.40;;;3.10;;
3185;SDS011;1604;53.700;10.252;2024-01-16T07:40:46;8.30;;;5.30;;
3185;SDS011;1604;53.700;10.252;2024-01-16T07:43:50;6.73;;;4.10;;
3185;SDS011;1604;53.700;10.252;2024-01-16T07:46:52;15.77;;;5.20;;
3185;SDS011;1604;53.700;10.252;2024-01-16T07:49:53;6.57;;;4.27;;
3185;SDS011;1604;53.700;10.252;2024-01-16T07:52:55;6.83;;;4.63;;
3185;SDS011;1604;53.700;10.252;2024-01-16T07:55:57;16.27;;;2.90;;
3185;SDS011;1604;53.700;10.252;2024-01-16T07:59:01;8.03;;;4.87;;
3185;SDS011;1604;53.700;10.252;2024-01-16T08:02:03;6.43;;;3.23;;
3185;SDS011;1604;53.700;10.252;2024-01-16T08:05:06;12.57;;;4.03;;
3185;SDS011;1604;53.700;10.252;2024-01-16T08:08:08;9.97;;;3.83;;
3185;SDS011;1604;53.700;10.252;2024-01-16T08:11:10;5.10;;;3.97;;
3185;SDS011;1604;53.700;10.252;2024-01-16T08:14:14;4.50;;;3.00;;
3185;SDS011;1604;53.700;10.252;2024-01-16T08:17:16;4.43;;;3.10;;
3185;SDS011;1604;53.700;10.252;2024-01-16T08:20:18;5.53;;;4.03;;
3185;SDS011;1604;53.700;10.252;2024-01-16T08:23:20;4.37;;;3.97;;
3185;SDS011;1604;53.700;10.252;2024-01-16T08:26:22;6.37;;;3.30;;
3185;SDS011;1604;53.700;10.252;2024-01-16T08:29:25;9.60;;;4.20;;
3185;SDS011;1604;53.700;10.252;2024-01-16T08:32:27;9.03;;;5.53;;
3185;SDS011;1604;53.700;10.252;2024-01-16T08:35:29;9.63;;;5.80;;
3185;SDS011;1604;53.700;10.252;2024-01-16T08:38:31;12.77;;;6.30;;
3185;SDS011;1604;53.700;10.252;2024-01-16T08:41:33;10.73;;;5.90;;
3185;SDS011;1604;53.700;10.252;2024-01-16T08:44:36;10.50;;;6.07;;
3185;SDS011;1604;53.700;10.252;2024-01-16T08:47:39;7.10;;;4.87;;
3185;SDS011;1604;53.700;10.252;2024-01-16T08:50:41;12.10;;;5.50;;
3185;SDS011;1604;53.700;10.252;2024-01-16T08:53:42;7.63;;;3.80;;
3185;SDS011;1604;53.700;10.252;2024-01-16T08:56:44;12.40;;;6.63;;
3185;SDS011;1604;53.700;10.252;2024-01-16T08:59:48;17.50;;;5.27;;
3185;SDS011;1604;53.700;10.252;2024-01-16T09:02:50;7.63;;;5.40;;
3185;SDS011;1604;53.700;10.252;2024-01-16T09:05:51;10.33;;;7.03;;
3185;SDS011;1604;53.700;10.252;2024-01-16T09:08:53;12.50;;;5.53;;
3185;SDS011;1604;53.700;10.252;2024-01-16T09:11:55;5.83;;;4.60;;
3185;SDS011;1604;53.700;10.252;2024-01-16T09:14:59;6.03;;;4.80;;
3185;SDS011;1604;53.700;10.252;2024-01-16T09:18:01;9.30;;;4.83;;
3185;SDS011;1604;53.700;10.252;2024-01-16T09:21:03;15.77;;;4.50;;
3185;SDS011;1604;53.700;10.252;2024-01-16T09:24:05;13.60;;;6.33;;
3185;SDS011;1604;53.700;10.252;2024-01-16T09:27:07;8.63;;;5.33;;
3185;SDS011;1604;53.700;10.252;2024-01-16T09:30:12;6.57;;;5.40;;
3185;SDS011;1604;53.700;10.252;2024-01-16T09:33:14;6.53;;;5.13;;
3185;SDS011;1604;53.700;10.252;2024-01-16T09:36:16;14.63;;;4.83;;
3185;SDS011;1604;53.700;10.252;2024-01-16T09:39:18;10.93;;;6.10;;
3185;SDS011;1604;53.700;10.252;2024-01-16T09:42:20;9.90;;;6.10;;
3185;SDS011;1604;53.700;10.252;2024-01-16T09:45:24;11.50;;;6.03;;
3185;SDS011;1604;53.700;10.252;2024-01-16T09:48:27;12.13;;;5.37;;
3185;SDS011;1604;53.700;10.252;2024-01-16T09:51:31;8.40;;;6.40;;
3185;SDS011;1604;53.700;10.252;2024-01-16T09:54:33;4.70;;;4.30;;
3185;SDS011;1604;53.700;10.252;2024-01-16T09:57:36;7.33;;;5.80;;
3185;SDS011;1604;53.700;10.252;2024-01-16T10:00:43;15.23;;;5.53;;
3185;SDS011;1604;53.700;10.252;2024-01-16T10:03:45;7.27;;;5.73;;
3185;SDS011;1604;53.700;10.252;2024-01-16T10:06:47;11.00;;;4.93;;
3185;SDS011;1604;53.700;10.252;2024-01-16T10:09:51;9.43;;;6.20;;
3185;SDS011;1604;53.700;10.252;2024-01-16T10:12:53;8.00;;;5.13;;
3185;SDS011;1604;53.700;10.252;2024-01-16T10:15:58;10.37;;;6.10;;
3185;SDS011;1604;53.700;10.252;2024-01-16T10:19:03;8.70;;;5.03;;
3185;SDS011;1604;53.700;10.252;2024-01-16T10:22:06;9.50;;;5.70;;
3185;SDS011;1604;53.700;10.252;2024-01-16T10:25:08;9.40;;;3.90;;
3185;SDS011;1604;53.700;10.252;2024-01-16T10:28:12;5.20;;;3.37;;
3185;SDS011;1604;53.700;10.252;2024-01-16T10:31:25;8.20;;;3.17;;
3185;SDS011;1604;53.700;10.252;2024-01-16T10:34:31;10.47;;;4.43;;
3185;SDS011;1604;53.700;10.252;2024-01-16T10:37:43;5.83;;;3.60;;
3185;SDS011;1604;53.700;10.252;2024-01-16T10:40:45;11.33;;;4.23;;
3185;SDS011;1604;53.700;10.252;2024-01-16T10:43:47;4.67;;;3.03;;
3185;SDS011;1604;53.700;10.252;2024-01-16T10:46:51;6.40;;;3.90;;
3185;SDS011;1604;53.700;10.252;2024-01-16T10:49:52;8.33;;;2.67;;
3185;SDS011;1604;53.700;10.252;2024-01-16T10:52:55;6.90;;;3.57;;
3185;SDS011;1604;53.700;10.252;2024-01-16T10:56:00;4.30;;;3.13;;
3185;SDS011;1604;53.700;10.252;2024-01-16T10:59:06;12.53;;;3.77;;
3185;SDS011;1604;53.700;10.252;2024-01-16T11:02:19;5.87;;;3.40;;
3185;SDS011;1604;53.700;10.252;2024-01-16T11:05:25;10.60;;;2.87;;
3185;SDS011;1604;53.700;10.252;2024-01-16T11:08:30;7.30;;;4.27;;
3185;SDS011;1604;53.700;10.252;2024-01-16T11:11:33;11.23;;;3.40;;
3185;SDS011;1604;53.700;10.252;2024-01-16T11:14:38;14.13;;;3.40;;
3185;SDS011;1604;53.700;10.252;2024-01-16T11:17:44;5.60;;;2.97;;
3185;SDS011;1604;53.700;10.252;2024-01-16T11:20:47;4.23;;;2.40;;
3185;SDS011;1604;53.700;10.252;2024-01-16T11:23:49;8.10;;;2.80;;
3185;SDS011;1604;53.700;10.252;2024-01-16T11:26:51;6.40;;;2.43;;
3185;SDS011;1604;53.700;10.252;2024-01-16T11:29:53;6.13;;;3.57;;
3185;SDS011;1604;53.700;10.252;2024-01-16T11:32:56;12.33;;;2.43;;
3185;SDS011;1604;53.700;10.252;2024-01-16T11:35:58;6.60;;;2.77;;
3185;SDS011;1604;53.700;10.252;2024-01-16T11:39:00;5.03;;;3.20;;
3185;SDS011;1604;53.700;10.252;2024-01-16T11:42:03;9.17;;;2.67;;
3185;SDS011;1604;53.700;10.252;2024-01-16T11:45:06;10.50;;;3.17;;
3185;SDS011;1604;53.700;10.252;2024-01-16T11:48:10;4.33;;;2.43;;
3185;SDS011;1604;53.700;10.252;2024-01-16T11:51:22;12.97;;;3.37;;
3185;SDS011;1604;53.700;10.252;2024-01-16T11:54:25;10.03;;;2.17;;
3185;SDS011;1604;53.700;10.252;2024-01-16T11:57:43;9.90;;;2.67;;
3185;SDS011;1604;53.700;10.252;2024-01-16T12:01:02;2.57;;;2.00;;
3185;SDS011;1604;53.700;10.252;2024-01-16T12:04:07;5.73;;;2.87;;
3185;SDS011;1604;53.700;10.252;2024-01-16T12:07:09;3.77;;;2.70;;
3185;SDS011;1604;53.700;10.252;2024-01-16T12:10:12;6.03;;;2.00;;
3185;SDS011;1604;53.700;10.252;2024-01-16T12:13:14;4.27;;;2.40;;
3185;SDS011;1604;53.700;10.252;2024-01-16T12:16:18;4.23;;;2.50;;
3185;SDS011;1604;53.700;10.252;2024-01-16T12:19:22;8.67;;;2.83;;
3185;SDS011;1604;53.700;10.252;2024-01-16T12:22:23;6.37;;;2.40;;
3185;SDS011;1604;53.700;10.252;2024-01-16T12:25:26;9.77;;;3.03;;
3185;SDS011;1604;53.700;10.252;2024-01-16T12:28:28;5.00;;;1.97;;
3185;SDS011;1604;53.700;10.252;2024-01-16T12:31:31;5.70;;;2.70;;
3185;SDS011;1604;53.700;10.252;2024-01-16T12:34:34;8.43;;;2.20;;
3185;SDS011;1604;53.700;10.252;2024-01-16T12:37:37;3.57;;;2.07;;
3185;SDS011;1604;53.700;10.252;2024-01-16T12:40:39;5.10;;;2.30;;
3185;SDS011;1604;53.700;10.252;2024-01-16T12:43:42;5.07;;;2.07;;
3185;SDS011;1604;53.700;10.252;2024-01-16T12:46:44;3.43;;;2.60;;
3185;SDS011;1604;53.700;10.252;2024-01-16T12:49:55;5.57;;;1.77;;
3185;SDS011;1604;53.700;10.252;2024-01-16T12:53:01;4.27;;;2.53;;
3185;SDS011;1604;53.700;10.252;2024-01-16T12:56:04;8.73;;;2.53;;
3185;SDS011;1604;53.700;10.252;2024-01-16T12:59:08;8.53;;;2.90;;
3185;SDS011;1604;53.700;10.252;2024-01-16T13:02:19;4.30;;;2.20;;
3185;SDS011;1604;53.700;10.252;2024-01-16T13:05:24;5.20;;;1.60;;
3185;SDS011;1604;53.700;10.252;2024-01-16T13:08:26;9.50;;;2.60;;
3185;SDS011;1604;53.700;10.252;2024-01-16T13:11:29;3.23;;;2.60;;
3185;SDS011;1604;53.700;10.252;2024-01-16T13:14:31;17.43;;;3.90;;
3185;SDS011;1604;53.700;10.252;2024-01-16T13:17:34;6.00;;;4.00;;
3185;SDS011;1604;53.700;10.252;2024-01-16T13:20:37;5.50;;;2.77;;
3185;SDS011;1604;53.700;10.252;2024-01-16T13:23:39;6.00;;;2.00;;
3185;SDS011;1604;53.700;10.252;2024-01-16T13:26:41;3.47;;;2.20;;
3185;SDS011;1604;53.700;10.252;2024-01-16T13:29:43;6.83;;;2.70;;
3185;SDS011;1604;53.700;10.252;2024-01-16T13:32:45;4.03;;;2.43;;
3185;SDS011;1604;53.700;10.252;2024-01-16T13:35:48;9.67;;;2.80;;
3185;SDS011;1604;53.700;10.252;2024-01-16T13:38:52;4.20;;;2.40;;
3185;SDS011;1604;53.700;10.252;2024-01-16T13:41:54;4.47;;;2.40;;
3185;SDS011;1604;53.700;10.252;2024-01-16T13:44:56;19.37;;;4.10;;
3185;SDS011;1604;53.700;10.252;2024-01-16T13:47:58;6.17;;;3.07;;
3185;SDS011;1604;53.700;10.252;2024-01-16T13:51:02;8.03;;;3.33;;
3185;SDS011;1604;53.700;10.252;2024-01-16T13:54:04;11.13;;;3.47;;
3185;SDS011;1604;53.700;10.252;2024-01-16T13:57:06;8.47;;;2.67;;
3185;SDS011;1604;53.700;10.252;2024-01-16T14:00:10;7.63;;;3.40;;
3185;SDS011;1604;53.700;10.252;2024-01-16T14:03:15;5.10;;;3.30;;
3185;SDS011;1604;53.700;10.252;2024-01-16T14:06:18;6.70;;;3.37;;
3185;SDS011;1604;53.700;10.252;2024-01-16T14:09:21;4.37;;;2.43;;
3185;SDS011;1604;53.700;10.252;2024-01-16T14:12:24;9.93;;;2.90;;
3185;SDS011;1604;53.700;10.252;2024-01-16T14:15:26;3.53;;;3.23;;
3185;SDS011;1604;53.700;10.252;2024-01-16T14:18:28;3.07;;;2.37;;
3185;SDS011;1604;53.700;10.252;2024-01-16T14:21:31;8.17;;;3.40;;
3185;SDS011;1604;53.700;10.252;2024-01-16T14:24:33;3.90;;;2.87;;
3185;SDS011;1604;53.700;10.252;2024-01-16T14:27:38;3.40;;;2.27;;
3185;SDS011;1604;53.700;10.252;2024-01-16T14:30:40;7.60;;;3.50;;
3185;SDS011;1604;53.700;10.252;2024-01-16T14:33:42;6.00;;;2.37;;
3185;SDS011;1604;53.700;10.252;2024-01-16T14:36:46;9.37;;;2.90;;
3185;SDS011;1604;53.700;10.252;2024-01-16T14:39:48;8.23;;;3.67;;
3185;SDS011;1604;53.700;10.252;2024-01-16T14:42:50;17.20;;;3.90;;
3185;SDS011;1604;53.700;10.252;2024-01-16T14:45:53;6.93;;;4.97;;
3185;SDS011;1604;53.700;10.252;2024-01-16T14:48:58;9.50;;;5.17;;
3185;SDS011;1604;53.700;10.252;2024-01-16T14:52:01;14.93;;;7.70;;
3185;SDS011;1604;53.700;10.252;2024-01-16T14:55:04;12.40;;;7.40;;
3185;SDS011;1604;53.700;10.252;2024-01-16T14:58:08;12.50;;;7.40;;
3185;SDS011;1604;53.700;10.252;2024-01-16T15:01:10;9.57;;;5.63;;
3185;SDS011;1604;53.700;10.252;2024-01-16T15:04:12;9.47;;;6.80;;
3185;SDS011;1604;53.700;10.252;2024-01-16T15:07:15;10.63;;;6.37;;
3185;SDS011;1604;53.700;10.252;2024-01-16T15:10:17;8.50;;;5.70;;
3185;SDS011;1604;53.700;10.252;2024-01-16T15:13:19;8.03;;;6.33;;
3185;SDS011;1604;53.700;10.252;2024-01-16T15:16:23;11.00;;;5.37;;
3185;SDS011;1604;53.700;10.252;2024-01-16T15:19:26;4.53;;;4.13;;
3185;SDS011;1604;53.700;10.252;2024-01-16T15:22:29;8.40;;;3.37;;
3185;SDS011;1604;53.700;10.252;2024-01-16T15:25:31;7.30;;;6.03;;
3185;SDS011;1604;53.700;10.252;2024-01-16T15:28:33;12.10;;;5.67;;
3185;SDS011;1604;53.700;10.252;2024-01-16T15:31:35;9.60;;;5.37;;
3185;SDS011;1604;53.700;10.252;2024-01-16T15:34:40;9.50;;;5.80;;
3185;SDS011;1604;53.700;10.252;2024-01-16T15:37:43;6.43;;;5.33;;
3185;SDS011;1604;53.700;10.252;2024-01-16T15:40:45;8.60;;;5.90;;
3185;SDS011;1604;53.700;10.252;2024-01-16T15:43:47;14.33;;;6.77;;
3185;SDS011;1604;53.700;10.252;2024-01-16T15:46:56;9.83;;;5.53;;
3185;SDS011;1604;53.700;10.252;2024-01-16T15:49:59;11.20;;;6.47;;
3185;SDS011;1604;53.700;10.252;2024-01-16T15:53:02;8.83;;;5.00;;
3185;SDS011;1604;53.700;10.252;2024-01-16T15:56:05;9.70;;;4.83;;
3185;SDS011;1604;53.700;10.252;2024-01-16T15:59:07;7.30;;;6.00;;
3185;SDS011;1604;53.700;10.252;2024-01-16T16:02:09;6.90;;;4.80;;
3185;SDS011;1604;53.700;10.252;2024-01-16T16:05:14;10.00;;;4.87;;
3185;SDS011;1604;53.700;10.252;2024-01-16T16:08:18;7.33;;;4.83;;
3185;SDS011;1604;53.700;10.252;2024-01-16T16:11:21;13.57;;;4.80;;
3185;SDS011;1604;53.700;10.252;2024-01-16T16:14:22;5.67;;;4.30;;
3185;SDS011;1604;53.700;10.252;2024-01-16T16:17:25;15.63;;;5.27;;
3185;SDS011;1604;53.700;10.252;2024-01-16T16:20:27;8.53;;;4.50;;
3185;SDS011;1604;53.700;10.252;2024-01-16T16:23:30;11.10;;;3.93;;
3185;SDS011;1604;53.700;10.252;2024-01-16T16:26:33;8.43;;;4.80;;
3185;SDS011;1604;53.700;10.252;2024-01-16T16:29:36;7.13;;;4.40;;
3185;SDS011;1604;53.700;10.252;2024-01-16T16:32:38;14.97;;;4.60;;
3185;SDS011;1604;53.700;10.252;2024-01-16T16:35:40;5.10;;;4.20;;
3185;SDS011;1604;53.700;10.252;2024-01-16T16:38:45;15.53;;;5.33;;
3185;SDS011;1604;53.700;10.252;2024-01-16T16:41:47;12.33;;;5.40;;
3185;SDS011;1604;53.700;10.252;2024-01-16T16:44:50;7.87;;;4.27;;
3185;SDS011;1604;53.700;10.252;2024-01-16T16:47:52;6.50;;;5.77;;
3185;SDS011;1604;53.700;10.252;2024-01-16T16:50:54;10.40;;;5.73;;
3185;SDS011;1604;53.700;10.252;2024-01-16T16:53:57;10.77;;;6.03;;
3185;SDS011;1604;53.700;10.252;2024-01-16T16:56:59;10.17;;;6.73;;
3185;SDS011;1604;53.700;10.252;2024-01-16T17:00:01;10.40;;;6.57;;
3185;SDS011;1604;53.700;10.252;2024-01-16T17:03:04;16.53;;;9.00;;
3185;SDS011;1604;53.700;10.252;2024-01-16T17:06:06;15.40;;;8.60;;
3185;SDS011;1604;53.700;10.252;2024-01-16T17:09:10;15.73;;;9.40;;
3185;SDS011;1604;53.700;10.252;2024-01-16T17:12:12;19.80;;;8.40;;
3185;SDS011;1604;53.700;10.252;2024-01-16T17:15:14;16.60;;;8.97;;
3185;SDS011;1604;53.700;10.252;2024-01-16T17:18:16;17.30;;;9.73;;
3185;SDS011;1604;53.700;10.252;2024-01-16T17:21:18;15.33;;;9.50;;
3185;SDS011;1604;53.700;10.252;2024-01-16T17:24:21;28.03;;;10.10;;
3185;SDS011;1604;53.700;10.252;2024-01-16T17:27:23;12.17;;;8.67;;
3185;SDS011;1604;53.700;10.252;2024-01-16T17:30:28;17.17;;;9.17;;
3185;SDS011;1604;53.700;10.252;2024-01-16T17:33:30;19.67;;;9.30;;
3185;SDS011;1604;53.700;10.252;2024-01-16T17:36:32;20.33;;;11.40;;
3185;SDS011;1604;53.700;10.252;2024-01-16T17:39:40;18.43;;;10.07;;
3185;SDS011;1604;53.700;10.252;2024-01-16T17:42:43;20.47;;;10.33;;
3185;SDS011;1604;53.700;10.252;2024-01-16T17:45:45;22.27;;;11.30;;
3185;SDS011;1604;53.700;10.252;2024-01-16T17:48:47;26.47;;;11.60;;
3185;SDS011;1604;53.700;10.252;2024-01-16T17:51:49;25.50;;;12.20;;
3185;SDS011;1604;53.700;10.252;2024-01-16T17:54:52;29.27;;;12.47;;
3185;SDS011;1604;53.700;10.252;2024-01-16T17:57:57;24.47;;;11.80;;
3185;SDS011;1604;53.700;10.252;2024-01-16T18:00:59;23.50;;;12.17;;
3185;SDS011;1604;53.700;10.252;2024-01-16T18:04:01;19.80;;;12.50;;
3185;SDS011;1604;53.700;10.252;2024-01-16T18:07:03;20.53;;;11.93;;
3185;SDS011;1604;53.700;10.252;2024-01-16T18:10:12;21.43;;;11.23;;
3185;SDS011;1604;53.700;10.252;2024-01-16T18:13:15;26.87;;;13.63;;
3185;SDS011;1604;53.700;10.252;2024-01-16T18:16:16;26.23;;;14.40;;
3185;SDS011;1604;53.700;10.252;2024-01-16T18:19:18;18.27;;;10.90;;
3185;SDS011;1604;53.700;10.252;2024-01-16T18:22:21;24.80;;;14.67;;
3185;SDS011;1604;53.700;10.252;2024-01-16T18:25:25;27.10;;;13.63;;
3185;SDS011;1604;53.700;10.252;2024-01-16T18:28:27;24.17;;;15.10;;
3185;SDS011;1604;53.700;10.252;2024-01-16T18:31:29;28.00;;;12.57;;